sensor_id;sensor_type;location;lat;lon;timestamp;pressure;altitude;pressure_sealevel;temperature;humidity
52469;BME280;38381;53.688;10.776;2023-04-30T00:04:19;101876.22;;;5.14;74.71
52469;BME280;38381;53.688;10.776;2023-04-30T00:09:19;101888.00;;;5.09;74.21
52469;BME280;38381;53.688;10.776;2023-04-30T00:14:20;101891.28;;;5.06;74.46
52469;BME280;38381;53.688;10.776;2023-04-30T00:19:20;101893.94;;;5.08;74.70
52469;BME280;38381;53.688;10.776;2023-04-30T00:24:21;101891.06;;;5.01;75.03
52469;BME280;38381;53.688;10.776;2023-04-30T00:29:21;101898.59;;;4.97;74.34
52469;BME280;38381;53.688;10.776;2023-04-30T00:34:22;101899.09;;;4.90;74.76
52469;BME280;38381;53.688;10.776;2023-04-30T00:39:22;101900.47;;;4.83;75.27
52469;BME280;38381;53.688;10.776;2023-04-30T00:44:23;101911.13;;;4.73;74.63
52469;BME280;38381;53.688;10.776;2023-04-30T00:49:23;101914.81;;;4.78;75.14
52469;BME280;38381;53.688;10.776;2023-04-30T00:54:24;101922.41;;;4.58;75.66
52469;BME280;38381;53.688;10.776;2023-04-30T00:59:24;101919.06;;;4.59;75.71
52469;BME280;38381;53.688;10.776;2023-04-30T01:04:25;101929.03;;;4.53;76.17
52469;BME280;38381;53.688;10.776;2023-04-30T01:09:27;101931.31;;;4.31;75.69
52469;BME280;38381;53.688;10.776;2023-04-30T01:15:13;101939.16;;;4.34;75.88
52469;BME280;38381;53.688;10.776;2023-04-30T01:20:18;101944.63;;;4.23;76.58
52469;BME280;38381;53.688;10.776;2023-04-30T01:25:21;101949.63;;;4.20;76.49
52469;BME280;38381;53.688;10.776;2023-04-30T01:30:24;101942.25;;;4.10;77.14
52469;BME280;38381;53.688;10.776;2023-04-30T01:41:19;101947.94;;;4.05;76.86
52469;BME280;38381;53.688;10.776;2023-04-30T01:46:25;101958.13;;;4.03;77.13
52469;BME280;38381;53.688;10.776;2023-04-30T01:51:38;101962.38;;;4.02;77.24
52469;BME280;38381;53.688;10.776;2023-04-30T01:56:43;101958.22;;;4.05;77.34
52469;BME280;38381;53.688;10.776;2023-04-30T02:01:45;101969.34;;;4.05;76.78
52469;BME280;38381;53.688;10.776;2023-04-30T02:06:46;101975.13;;;4.01;77.38
52469;BME280;38381;53.688;10.776;2023-04-30T02:11:46;101972.34;;;3.96;77.79
52469;BME280;38381;53.688;10.776;2023-04-30T02:16:46;101976.59;;;3.96;77.83
52469;BME280;38381;53.688;10.776;2023-04-30T02:21:47;101965.50;;;3.97;76.84
52469;BME280;38381;53.688;10.776;2023-04-30T02:26:47;101977.22;;;3.92;77.24
52469;BME280;38381;53.688;10.776;2023-04-30T02:31:48;101976.09;;;3.87;76.95
52469;BME280;38381;53.688;10.776;2023-04-30T02:36:48;101974.78;;;3.78;77.14
52469;BME280;38381;53.688;10.776;2023-04-30T02:41:48;101987.38;;;3.74;77.68
52469;BME280;38381;53.688;10.776;2023-04-30T02:46:49;101987.16;;;3.69;77.42
52469;BME280;38381;53.688;10.776;2023-04-30T02:51:50;101987.59;;;3.62;76.77
52469;BME280;38381;53.688;10.776;2023-04-30T02:56:50;101990.00;;;3.59;76.94
52469;BME280;38381;53.688;10.776;2023-04-30T03:01:50;101999.03;;;3.52;76.99
52469;BME280;38381;53.688;10.776;2023-04-30T03:06:51;101995.59;;;3.52;77.17
52469;BME280;38381;53.688;10.776;2023-04-30T03:11:51;101990.69;;;3.56;76.32
52469;BME280;38381;53.688;10.776;2023-04-30T03:16:51;101987.66;;;3.47;77.20
52469;BME280;38381;53.688;10.776;2023-04-30T03:21:53;101990.59;;;3.38;77.08
52469;BME280;38381;53.688;10.776;2023-04-30T03:26:54;102005.50;;;3.46;77.55
52469;BME280;38381;53.688;10.776;2023-04-30T03:31:54;102006.31;;;3.45;77.61
52469;BME280;38381;53.688;10.776;2023-04-30T03:36:55;102012.00;;;3.39;77.52
52469;BME280;38381;53.688;10.776;2023-04-30T03:41:55;102005.88;;;3.37;77.43
52469;BME280;38381;53.688;10.776;2023-04-30T03:46:56;102026.41;;;3.37;77.56
52469;BME280;38381;53.688;10.776;2023-04-30T03:51:56;102026.06;;;3.31;77.43
52469;BME280;38381;53.688;10.776;2023-04-30T03:56:56;102025.81;;;3.26;77.86
52469;BME280;38381;53.688;10.776;2023-04-30T04:01:59;102015.47;;;3.25;78.08
52469;BME280;38381;53.688;10.776;2023-04-30T04:07:00;102035.88;;;3.23;77.68
52469;BME280;38381;53.688;10.776;2023-04-30T04:12:02;102044.38;;;3.22;77.73
52469;BME280;38381;53.688;10.776;2023-04-30T04:17:03;102050.38;;;3.22;77.87
52469;BME280;38381;53.688;10.776;2023-04-30T04:22:05;102043.31;;;3.18;77.74
52469;BME280;38381;53.688;10.776;2023-04-30T04:27:05;102048.09;;;3.12;78.00
52469;BME280;38381;53.688;10.776;2023-04-30T04:32:06;102059.06;;;3.10;79.21
52469;BME280;38381;53.688;10.776;2023-04-30T04:37:07;102055.94;;;3.15;78.94
52469;BME280;38381;53.688;10.776;2023-04-30T04:42:07;102058.31;;;3.27;77.84
52469;BME280;38381;53.688;10.776;2023-04-30T04:47:08;102065.56;;;3.19;78.06
52469;BME280;38381;53.688;10.776;2023-04-30T04:52:09;102072.38;;;3.34;78.14
52469;BME280;38381;53.688;10.776;2023-04-30T04:57:10;102064.88;;;3.37;77.55
52469;BME280;38381;53.688;10.776;2023-04-30T05:02:10;102074.41;;;3.39;77.43
52469;BME280;38381;53.688;10.776;2023-04-30T05:07:11;102087.91;;;3.52;77.22
52469;BME280;38381;53.688;10.776;2023-04-30T05:12:14;102086.03;;;3.64;76.60
52469;BME280;38381;53.688;10.776;2023-04-30T05:17:15;102090.16;;;3.77;76.54
52469;BME280;38381;53.688;10.776;2023-04-30T05:22:16;102096.38;;;3.80;76.07
52469;BME280;38381;53.688;10.776;2023-04-30T05:27:16;102098.00;;;3.95;75.73
52469;BME280;38381;53.688;10.776;2023-04-30T05:32:16;102098.84;;;4.10;74.32
52469;BME280;38381;53.688;10.776;2023-04-30T05:37:17;102104.31;;;4.16;75.62
52469;BME280;38381;53.688;10.776;2023-04-30T05:42:20;102115.41;;;4.32;74.47
52469;BME280;38381;53.688;10.776;2023-04-30T05:47:20;102114.38;;;4.44;74.73
52469;BME280;38381;53.688;10.776;2023-04-30T05:52:20;102117.69;;;4.58;73.66
52469;BME280;38381;53.688;10.776;2023-04-30T05:57:21;102121.75;;;4.71;73.52
52469;BME280;38381;53.688;10.776;2023-04-30T06:02:21;102117.84;;;4.78;73.71
52469;BME280;38381;53.688;10.776;2023-04-30T06:07:22;102114.44;;;4.95;73.59
52469;BME280;38381;53.688;10.776;2023-04-30T06:12:22;102126.13;;;5.23;72.84
52469;BME280;38381;53.688;10.776;2023-04-30T06:17:22;102125.50;;;5.45;71.55
52469;BME280;38381;53.688;10.776;2023-04-30T06:22:23;102131.63;;;5.65;70.24
52469;BME280;38381;53.688;10.776;2023-04-30T06:27:26;102127.59;;;5.70;69.69
52469;BME280;38381;53.688;10.776;2023-04-30T06:32:27;102131.75;;;5.86;67.75
52469;BME280;38381;53.688;10.776;2023-04-30T06:37:27;102130.56;;;5.96;66.02
52469;BME280;38381;53.688;10.776;2023-04-30T06:42:28;102139.63;;;6.25;65.81
52469;BME280;38381;53.688;10.776;2023-04-30T06:47:34;102145.03;;;6.49;63.67
52469;BME280;38381;53.688;10.776;2023-04-30T06:52:37;102141.97;;;6.38;64.09
52469;BME280;38381;53.688;10.776;2023-04-30T06:57:37;102137.59;;;6.75;63.41
52469;BME280;38381;53.688;10.776;2023-04-30T07:02:39;102136.56;;;6.91;63.25
52469;BME280;38381;53.688;10.776;2023-04-30T07:07:39;102141.63;;;7.09;61.75
52469;BME280;38381;53.688;10.776;2023-04-30T07:12:40;102143.81;;;7.61;60.96
52469;BME280;38381;53.688;10.776;2023-04-30T07:17:40;102137.50;;;8.19;59.10
52469;BME280;38381;53.688;10.776;2023-04-30T07:22:41;102141.34;;;8.51;58.25
52469;BME280;38381;53.688;10.776;2023-04-30T07:27:50;102152.66;;;8.79;56.83
52469;BME280;38381;53.688;10.776;2023-04-30T07:32:51;102147.84;;;8.88;55.29
52469;BME280;38381;53.688;10.776;2023-04-30T07:37:52;102159.06;;;9.13;55.90
52469;BME280;38381;53.688;10.776;2023-04-30T07:42:53;102161.00;;;8.94;54.45
52469;BME280;38381;53.688;10.776;2023-04-30T07:47:53;102159.94;;;9.13;53.49
52469;BME280;38381;53.688;10.776;2023-04-30T07:52:53;102151.72;;;9.25;53.52
52469;BME280;38381;53.688;10.776;2023-04-30T07:57:54;102158.31;;;9.42;55.03
52469;BME280;38381;53.688;10.776;2023-04-30T08:02:54;102157.19;;;9.34;53.45
52469;BME280;38381;53.688;10.776;2023-04-30T08:07:55;102158.53;;;9.49;51.62
52469;BME280;38381;53.688;10.776;2023-04-30T08:12:55;102157.47;;;9.69;52.19
52469;BME280;38381;53.688;10.776;2023-04-30T08:17:55;102169.34;;;9.62;53.53
52469;BME280;38381;53.688;10.776;2023-04-30T08:22:56;102173.94;;;9.97;53.76
52469;BME280;38381;53.688;10.776;2023-04-30T08:27:56;102175.03;;;10.05;49.14
52469;BME280;38381;53.688;10.776;2023-04-30T08:32:57;102173.38;;;10.07;50.80
52469;BME280;38381;53.688;10.776;2023-04-30T08:37:58;102173.00;;;10.51;47.62
52469;BME280;38381;53.688;10.776;2023-04-30T08:43:05;102178.88;;;10.45;49.70
52469;BME280;38381;53.688;10.776;2023-04-30T08:48:09;102178.44;;;10.60;49.34
52469;BME280;38381;53.688;10.776;2023-04-30T08:53:11;102175.66;;;10.84;48.82
52469;BME280;38381;53.688;10.776;2023-04-30T08:58:14;102177.16;;;11.06;49.05
52469;BME280;38381;53.688;10.776;2023-04-30T09:03:14;102165.63;;;11.28;48.24
52469;BME280;38381;53.688;10.776;2023-04-30T09:08:18;102165.75;;;11.01;48.30
52469;BME280;38381;53.688;10.776;2023-04-30T09:13:19;102174.13;;;11.22;48.52
52469;BME280;38381;53.688;10.776;2023-04-30T09:18:20;102180.31;;;11.62;47.96
52469;BME280;38381;53.688;10.776;2023-04-30T09:23:21;102174.50;;;11.71;46.30
52469;BME280;38381;53.688;10.776;2023-04-30T09:28:22;102172.06;;;11.77;46.66
52469;BME280;38381;53.688;10.776;2023-04-30T09:33:24;102164.41;;;11.48;45.53
52469;BME280;38381;53.688;10.776;2023-04-30T09:38:27;102167.53;;;11.70;46.69
52469;BME280;38381;53.688;10.776;2023-04-30T09:43:28;102159.44;;;11.93;46.88
52469;BME280;38381;53.688;10.776;2023-04-30T09:48:29;102157.22;;;12.10;46.75
52469;BME280;38381;53.688;10.776;2023-04-30T09:53:32;102148.22;;;12.33;47.14
52469;BME280;38381;53.688;10.776;2023-04-30T09:58:36;102148.94;;;12.68;44.99
52469;BME280;38381;53.688;10.776;2023-04-30T10:03:41;102149.84;;;12.71;46.13
52469;BME280;38381;53.688;10.776;2023-04-30T10:08:44;102149.91;;;12.74;44.87
52469;BME280;38381;53.688;10.776;2023-04-30T10:13:53;102154.09;;;12.26;44.07
52469;BME280;38381;53.688;10.776;2023-04-30T10:18:58;102141.75;;;12.57;44.47
52469;BME280;38381;53.688;10.776;2023-04-30T10:24:02;102133.97;;;13.02;44.86
52469;BME280;38381;53.688;10.776;2023-04-30T10:29:04;102127.59;;;13.34;45.65
52469;BME280;38381;53.688;10.776;2023-04-30T10:34:21;102125.63;;;13.22;43.36
52469;BME280;38381;53.688;10.776;2023-04-30T10:39:25;102124.31;;;12.97;43.35
52469;BME280;38381;53.688;10.776;2023-04-30T10:44:33;102123.78;;;13.16;44.68
52469;BME280;38381;53.688;10.776;2023-04-30T10:49:35;102120.72;;;13.37;44.21
52469;BME280;38381;53.688;10.776;2023-04-30T10:54:36;102110.94;;;13.79;43.14
52469;BME280;38381;53.688;10.776;2023-04-30T10:59:37;102112.34;;;13.57;43.00
52469;BME280;38381;53.688;10.776;2023-04-30T11:10:12;102096.75;;;13.60;42.70
52469;BME280;38381;53.688;10.776;2023-04-30T11:15:13;102098.53;;;13.11;43.49
52469;BME280;38381;53.688;10.776;2023-04-30T11:20:20;102090.66;;;13.07;43.83
52469;BME280;38381;53.688;10.776;2023-04-30T11:25:22;102091.59;;;13.11;43.73
52469;BME280;38381;53.688;10.776;2023-04-30T11:30:22;102090.66;;;13.58;43.22
52469;BME280;38381;53.688;10.776;2023-04-30T11:35:23;102080.50;;;13.76;42.48
52469;BME280;38381;53.688;10.776;2023-04-30T11:40:23;102091.19;;;13.95;42.70
52469;BME280;38381;53.688;10.776;2023-04-30T11:45:25;102077.88;;;13.78;42.97
52469;BME280;38381;53.688;10.776;2023-04-30T11:50:31;102080.44;;;13.73;44.17
52469;BME280;38381;53.688;10.776;2023-04-30T11:55:32;102074.19;;;13.63;42.81
52469;BME280;38381;53.688;10.776;2023-04-30T12:00:33;102078.53;;;13.63;42.74
52469;BME280;38381;53.688;10.776;2023-04-30T12:05:34;102075.84;;;13.57;42.55
52469;BME280;38381;53.688;10.776;2023-04-30T12:10:34;102063.41;;;13.37;42.73
52469;BME280;38381;53.688;10.776;2023-04-30T12:15:35;102069.72;;;13.55;42.07
52469;BME280;38381;53.688;10.776;2023-04-30T12:20:38;102068.81;;;13.50;43.32
52469;BME280;38381;53.688;10.776;2023-04-30T12:25:40;102064.38;;;13.47;42.85
52469;BME280;38381;53.688;10.776;2023-04-30T12:30:44;102055.25;;;13.75;42.46
52469;BME280;38381;53.688;10.776;2023-04-30T12:35:44;102048.31;;;13.74;41.86
52469;BME280;38381;53.688;10.776;2023-04-30T12:40:46;102037.88;;;13.74;42.19
52469;BME280;38381;53.688;10.776;2023-04-30T12:45:51;102044.91;;;13.81;42.78
52469;BME280;38381;53.688;10.776;2023-04-30T12:50:53;102036.84;;;13.63;42.75
52469;BME280;38381;53.688;10.776;2023-04-30T12:56:11;102034.28;;;13.66;42.91
52469;BME280;38381;53.688;10.776;2023-04-30T13:01:13;102026.72;;;13.84;43.07
52469;BME280;38381;53.688;10.776;2023-04-30T13:06:14;102029.97;;;13.68;41.14
52469;BME280;38381;53.688;10.776;2023-04-30T13:11:16;102027.28;;;13.63;42.77
52469;BME280;38381;53.688;10.776;2023-04-30T13:16:16;102010.28;;;13.92;42.92
52469;BME280;38381;53.688;10.776;2023-04-30T13:21:17;102007.81;;;14.01;41.37
52469;BME280;38381;53.688;10.776;2023-04-30T13:26:17;102003.47;;;14.03;42.12
52469;BME280;38381;53.688;10.776;2023-04-30T13:31:18;101995.78;;;14.15;42.60
52469;BME280;38381;53.688;10.776;2023-04-30T13:36:18;101998.50;;;14.24;41.45
52469;BME280;38381;53.688;10.776;2023-04-30T13:41:18;101991.47;;;14.19;41.81
52469;BME280;38381;53.688;10.776;2023-04-30T13:46:21;101985.28;;;14.11;41.87
52469;BME280;38381;53.688;10.776;2023-04-30T13:51:23;101979.97;;;14.01;41.71
52469;BME280;38381;53.688;10.776;2023-04-30T13:56:23;101982.19;;;14.45;41.82
52469;BME280;38381;53.688;10.776;2023-04-30T14:01:24;101972.72;;;14.55;41.94
52469;BME280;38381;53.688;10.776;2023-04-30T14:06:25;101967.56;;;14.58;42.38
52469;BME280;38381;53.688;10.776;2023-04-30T14:11:25;101965.63;;;14.40;40.60
52469;BME280;38381;53.688;10.776;2023-04-30T14:16:26;101967.28;;;14.34;41.27
52469;BME280;38381;53.688;10.776;2023-04-30T14:21:28;101960.03;;;14.05;41.50
52469;BME280;38381;53.688;10.776;2023-04-30T14:26:28;101951.06;;;14.62;41.92
52469;BME280;38381;53.688;10.776;2023-04-30T14:31:30;101952.59;;;14.45;41.87
52469;BME280;38381;53.688;10.776;2023-04-30T14:36:30;101940.97;;;14.14;40.58
52469;BME280;38381;53.688;10.776;2023-04-30T14:41:34;101951.53;;;14.24;41.97
52469;BME280;38381;53.688;10.776;2023-04-30T14:46:35;101936.03;;;14.40;41.13
52469;BME280;38381;53.688;10.776;2023-04-30T14:51:36;101926.38;;;14.33;41.03
52469;BME280;38381;53.688;10.776;2023-04-30T14:56:36;101925.78;;;14.60;40.95
52469;BME280;38381;53.688;10.776;2023-04-30T15:01:37;101932.00;;;14.73;41.15
52469;BME280;38381;53.688;10.776;2023-04-30T15:06:37;101925.25;;;14.99;39.44
52469;BME280;38381;53.688;10.776;2023-04-30T15:11:38;101918.94;;;14.71;39.30
52469;BME280;38381;53.688;10.776;2023-04-30T15:16:38;101915.66;;;15.03;39.47
52469;BME280;38381;53.688;10.776;2023-04-30T15:21:39;101916.66;;;15.22;38.83
52469;BME280;38381;53.688;10.776;2023-04-30T15:26:39;101926.16;;;15.06;40.45
52469;BME280;38381;53.688;10.776;2023-04-30T15:31:40;101914.97;;;15.32;39.02
52469;BME280;38381;53.688;10.776;2023-04-30T15:36:41;101917.50;;;15.21;40.17
52469;BME280;38381;53.688;10.776;2023-04-30T15:41:41;101911.34;;;15.06;39.72
52469;BME280;38381;53.688;10.776;2023-04-30T15:46:42;101899.13;;;14.99;39.50
52469;BME280;38381;53.688;10.776;2023-04-30T15:51:43;101905.22;;;15.04;39.80
52469;BME280;38381;53.688;10.776;2023-04-30T15:56:44;101890.56;;;15.26;39.96
52469;BME280;38381;53.688;10.776;2023-04-30T16:01:45;101892.31;;;15.31;40.08
52469;BME280;38381;53.688;10.776;2023-04-30T16:06:45;101883.59;;;15.30;40.32
52469;BME280;38381;53.688;10.776;2023-04-30T16:11:46;101880.13;;;15.28;39.63
52469;BME280;38381;53.688;10.776;2023-04-30T16:16:47;101865.28;;;15.24;40.15
52469;BME280;38381;53.688;10.776;2023-04-30T16:21:47;101866.28;;;15.51;38.43
52469;BME280;38381;53.688;10.776;2023-04-30T16:26:48;101862.78;;;15.55;40.72
52469;BME280;38381;53.688;10.776;2023-04-30T16:31:48;101855.75;;;15.41;39.88
52469;BME280;38381;53.688;10.776;2023-04-30T16:36:49;101855.78;;;15.44;40.45
52469;BME280;38381;53.688;10.776;2023-04-30T16:41:49;101849.69;;;15.50;39.52
52469;BME280;38381;53.688;10.776;2023-04-30T16:46:49;101842.66;;;15.32;40.52
52469;BME280;38381;53.688;10.776;2023-04-30T16:51:50;101838.34;;;15.48;39.45
52469;BME280;38381;53.688;10.776;2023-04-30T16:56:50;101840.13;;;15.64;39.64
52469;BME280;38381;53.688;10.776;2023-04-30T17:01:51;101835.72;;;15.34;39.51
52469;BME280;38381;53.688;10.776;2023-04-30T17:06:55;101826.97;;;15.29;40.50
52469;BME280;38381;53.688;10.776;2023-04-30T17:11:56;101826.97;;;15.31;39.60
52469;BME280;38381;53.688;10.776;2023-04-30T17:16:57;101813.00;;;15.24;40.43
52469;BME280;38381;53.688;10.776;2023-04-30T17:21:57;101826.94;;;15.23;39.47
52469;BME280;38381;53.688;10.776;2023-04-30T17:26:58;101819.88;;;15.03;40.72
52469;BME280;38381;53.688;10.776;2023-04-30T17:31:58;101815.50;;;15.02;40.66
52469;BME280;38381;53.688;10.776;2023-04-30T17:36:58;101827.69;;;14.97;40.62
52469;BME280;38381;53.688;10.776;2023-04-30T17:41:59;101832.00;;;14.92;41.26
52469;BME280;38381;53.688;10.776;2023-04-30T17:47:00;101832.66;;;14.59;41.30
52469;BME280;38381;53.688;10.776;2023-04-30T17:52:00;101825.59;;;14.52;42.50
52469;BME280;38381;53.688;10.776;2023-04-30T17:57:00;101834.16;;;14.31;44.87
52469;BME280;38381;53.688;10.776;2023-04-30T18:02:01;101829.53;;;13.97;45.93
52469;BME280;38381;53.688;10.776;2023-04-30T18:07:04;101838.69;;;13.58;48.92
52469;BME280;38381;53.688;10.776;2023-04-30T18:12:04;101842.75;;;13.36;49.52
52469;BME280;38381;53.688;10.776;2023-04-30T18:17:05;101840.81;;;13.21;50.34
52469;BME280;38381;53.688;10.776;2023-04-30T18:22:06;101841.41;;;13.00;51.19
52469;BME280;38381;53.688;10.776;2023-04-30T18:27:07;101841.16;;;12.82;51.78
52469;BME280;38381;53.688;10.776;2023-04-30T18:32:07;101850.25;;;12.54;52.54
52469;BME280;38381;53.688;10.776;2023-04-30T18:37:08;101850.72;;;12.30;53.02
52469;BME280;38381;53.688;10.776;2023-04-30T18:42:08;101856.97;;;11.91;53.67
52469;BME280;38381;53.688;10.776;2023-04-30T18:47:09;101866.94;;;11.69;54.14
52469;BME280;38381;53.688;10.776;2023-04-30T18:52:10;101868.38;;;11.55;55.04
52469;BME280;38381;53.688;10.776;2023-04-30T18:57:11;101860.22;;;11.36;55.56
52469;BME280;38381;53.688;10.776;2023-04-30T19:02:15;101864.25;;;11.22;55.87
52469;BME280;38381;53.688;10.776;2023-04-30T19:07:15;101860.38;;;11.04;55.97
52469;BME280;38381;53.688;10.776;2023-04-30T19:12:16;101877.31;;;10.87;57.26
52469;BME280;38381;53.688;10.776;2023-04-30T19:17:16;101872.75;;;10.77;57.39
52469;BME280;38381;53.688;10.776;2023-04-30T19:22:17;101872.47;;;10.64;58.12
52469;BME280;38381;53.688;10.776;2023-04-30T19:27:18;101879.13;;;10.55;57.99
52469;BME280;38381;53.688;10.776;2023-04-30T19:32:21;101879.50;;;10.35;59.15
52469;BME280;38381;53.688;10.776;2023-04-30T19:37:21;101875.97;;;10.33;59.12
52469;BME280;38381;53.688;10.776;2023-04-30T19:42:24;101878.28;;;10.22;59.83
52469;BME280;38381;53.688;10.776;2023-04-30T19:47:24;101880.50;;;10.07;60.44
52469;BME280;38381;53.688;10.776;2023-04-30T19:52:25;101880.22;;;9.98;61.21
52469;BME280;38381;53.688;10.776;2023-04-30T19:57:25;101880.06;;;9.92;61.95
52469;BME280;38381;53.688;10.776;2023-04-30T20:02:27;101883.19;;;9.80;60.97
52469;BME280;38381;53.688;10.776;2023-04-30T20:07:27;101887.38;;;9.75;61.92
52469;BME280;38381;53.688;10.776;2023-04-30T20:12:28;101881.06;;;9.65;62.87
52469;BME280;38381;53.688;10.776;2023-04-30T20:17:28;101885.31;;;9.63;63.03
52469;BME280;38381;53.688;10.776;2023-04-30T20:22:28;101877.31;;;9.55;63.07
52469;BME280;38381;53.688;10.776;2023-04-30T20:27:29;101886.41;;;9.41;63.88
52469;BME280;38381;53.688;10.776;2023-04-30T20:32:29;101874.00;;;9.29;64.19
52469;BME280;38381;53.688;10.776;2023-04-30T20:37:30;101878.69;;;9.14;65.24
52469;BME280;38381;53.688;10.776;2023-04-30T20:42:34;101880.91;;;9.01;65.65
52469;BME280;38381;53.688;10.776;2023-04-30T20:47:35;101879.66;;;8.89;66.20
52469;BME280;38381;53.688;10.776;2023-04-30T20:52:35;101877.47;;;8.74;66.84
52469;BME280;38381;53.688;10.776;2023-04-30T20:57:36;101873.78;;;8.67;66.77
52469;BME280;38381;53.688;10.776;2023-04-30T21:02:36;101869.22;;;8.58;66.68
52469;BME280;38381;53.688;10.776;2023-04-30T21:07:37;101878.13;;;8.41;67.38
52469;BME280;38381;53.688;10.776;2023-04-30T21:12:37;101874.97;;;8.25;68.33
52469;BME280;38381;53.688;10.776;2023-04-30T21:17:38;101868.78;;;8.20;67.59
52469;BME280;38381;53.688;10.776;2023-04-30T21:22:38;101852.03;;;8.09;68.11
52469;BME280;38381;53.688;10.776;2023-04-30T21:27:38;101853.38;;;7.98;67.73
52469;BME280;38381;53.688;10.776;2023-04-30T21:32:42;101851.31;;;7.88;68.94
52469;BME280;38381;53.688;10.776;2023-04-30T21:37:43;101850.31;;;7.84;67.50
52469;BME280;38381;53.688;10.776;2023-04-30T21:42:43;101849.00;;;7.71;68.00
52469;BME280;38381;53.688;10.776;2023-04-30T21:47:46;101852.09;;;7.61;67.75
52469;BME280;38381;53.688;10.776;2023-04-30T21:52:46;101842.47;;;7.57;67.19
52469;BME280;38381;53.688;10.776;2023-04-30T21:57:49;101846.34;;;7.45;67.93
52469;BME280;38381;53.688;10.776;2023-04-30T22:02:50;101842.78;;;7.42;67.95
52469;BME280;38381;53.688;10.776;2023-04-30T22:07:50;101850.03;;;7.28;66.73
52469;BME280;38381;53.688;10.776;2023-04-30T22:12:50;101842.47;;;7.10;67.35
52469;BME280;38381;53.688;10.776;2023-04-30T22:17:51;101828.72;;;7.11;67.12
52469;BME280;38381;53.688;10.776;2023-04-30T22:22:51;101830.44;;;7.11;67.10
52469;BME280;38381;53.688;10.776;2023-04-30T22:27:52;101829.50;;;7.09;67.33
52469;BME280;38381;53.688;10.776;2023-04-30T22:32:55;101822.59;;;7.08;68.14
52469;BME280;38381;53.688;10.776;2023-04-30T22:37:56;101830.13;;;7.03;68.47
52469;BME280;38381;53.688;10.776;2023-04-30T22:43:00;101827.38;;;6.98;68.94
52469;BME280;38381;53.688;10.776;2023-04-30T22:48:00;101810.88;;;6.93;68.69
52469;BME280;38381;53.688;10.776;2023-04-30T22:53:02;101817.53;;;6.88;69.83
52469;BME280;38381;53.688;10.776;2023-04-30T22:58:02;101819.78;;;6.79;69.89
52469;BME280;38381;53.688;10.776;2023-04-30T23:03:03;101811.66;;;6.70;70.52
52469;BME280;38381;53.688;10.776;2023-04-30T23:08:03;101804.63;;;6.65;70.53
52469;BME280;38381;53.688;10.776;2023-04-30T23:13:04;101793.16;;;6.57;71.49
52469;BME280;38381;53.688;10.776;2023-04-30T23:18:04;101794.47;;;6.48;71.00
52469;BME280;38381;53.688;10.776;2023-04-30T23:23:05;101795.31;;;6.47;71.07
52469;BME280;38381;53.688;10.776;2023-04-30T23:28:05;101785.38;;;6.35;71.34
52469;BME280;38381;53.688;10.776;2023-04-30T23:33:06;101784.03;;;6.22;72.18
52469;BME280;38381;53.688;10.776;2023-04-30T23:38:06;101782.91;;;6.15;72.86
52469;BME280;38381;53.688;10.776;2023-04-30T23:43:07;101780.81;;;6.07;72.22
52469;BME280;38381;53.688;10.776;2023-04-30T23:48:07;101774.53;;;6.00;73.18
52469;BME280;38381;53.688;10.776;2023-04-30T23:53:09;101772.50;;;5.93;72.63
52469;BME280;38381;53.688;10.776;2023-04-30T23:58:09;101763.50;;;5.83;72.58
